This is the latest recevied weather packets stored in our database for station/object OK1HOL-13. If no packets are shown the sender has not sent any weather packets the latest 10 day(s).
| Time | Temp. | Humidity | Pressure | Rain* | Wind** | Luminosity | Snow |
|---|---|---|---|---|---|---|---|
| 1777632086 | 21.11° C | 26% | 1028.7 hPa | - | - | 431 W/m² | - |
| 1777631486 | 21.11° C | 26% | 1028.7 hPa | - | - | 431 W/m² | - |
| 1777630886 | 20.56° C | 27% | 1028.8 hPa | - | - | 431 W/m² | - |
| 1777630286 | 21.11° C | 27% | 1029 hPa | - | - | 431 W/m² | - |
| 1777629686 | 20° C | 29% | 1029 hPa | - | - | 431 W/m² | - |
| 1777629086 | 20° C | 28% | 1029.1 hPa | - | - | 431 W/m² | - |
| 1777628486 | 20.56° C | 27% | 1029.2 hPa | - | - | 431 W/m² | - |
| 1777627886 | 20° C | 29% | 1029.3 hPa | - | - | 431 W/m² | - |
| 1777627286 | 20° C | 29% | 1029.3 hPa | - | - | 431 W/m² | - |
| 1777626686 | 20.56° C | 29% | 1029.4 hPa | - | - | 431 W/m² | - |
| 1777626086 | 19.44° C | 30% | 1029.5 hPa | - | - | 431 W/m² | - |
| 1777625486 | 18.89° C | 31% | 1029.6 hPa | - | - | 431 W/m² | - |
| 1777624886 | 18.89° C | 31% | 1029.6 hPa | - | - | 431 W/m² | - |
| 1777624286 | 17.22° C | 33% | 1029.7 hPa | - | - | 431 W/m² | - |
| 1777623686 | 17.78° C | 33% | 1029.8 hPa | - | - | 421 W/m² | - |
| 1777623086 | 17.78° C | 33% | 1029.9 hPa | - | - | 383 W/m² | - |
| 1777622486 | 16.67° C | 35% | 1029.8 hPa | - | - | 372 W/m² | - |
| 1777621886 | 16.11° C | 35% | 1029.9 hPa | - | - | 359 W/m² | - |
| 1777621286 | 15° C | 38% | 1029.9 hPa | - | - | 332 W/m² | - |
| 1777620686 | 15° C | 37% | 1029.9 hPa | - | - | 305 W/m² | - |
| 1777620087 | 15° C | 38% | 1030 hPa | - | - | 293 W/m² | - |
| 1777619486 | 12.78° C | 42% | 1030 hPa | - | - | 267 W/m² | - |
| 1777618886 | 12.78° C | 43% | 1030 hPa | - | - | 248 W/m² | - |
| 1777618287 | 11.11° C | 44% | 1030 hPa | - | - | 187 W/m² | - |
| 1777617686 | 10.56° C | 47% | 1030.1 hPa | - | - | 166 W/m² | - |
* Rain since midnight (hover to see other rain measurements)
** Current wind speed in m/s (hover to see current wind gust speed)